createdAt,value
2022-09-26T00:01:35.870Z,100451.78
2022-09-26T00:04:30.386Z,100430.78
2022-09-26T00:07:18.331Z,100429.84
2022-09-26T00:10:04.104Z,100415.03
2022-09-26T00:12:49.372Z,100397.66
2022-09-26T00:15:34.884Z,100385.44
2022-09-26T00:18:20.218Z,100386.41
2022-09-26T00:21:07.329Z,100411.81
2022-09-26T00:23:54.432Z,100407.50
2022-09-26T00:26:40.281Z,100410.25
2022-09-26T00:29:25.845Z,100414.69
2022-09-26T00:32:11.541Z,100425.16
2022-09-26T00:34:57.854Z,100445.31
2022-09-26T00:37:43.640Z,100457.56
2022-09-26T00:40:30.584Z,100446.28
2022-09-26T00:43:47.110Z,100450.69
2022-09-26T00:46:40.911Z,100445.56
2022-09-26T00:49:32.880Z,100443.88
2022-09-26T00:52:43.300Z,100437.84
2022-09-26T00:55:35.217Z,100405.47
2022-09-26T00:58:28.199Z,100386.25
2022-09-26T01:01:14.791Z,100377.56
2022-09-26T01:04:02.843Z,100380.31
2022-09-26T01:06:50.028Z,100368.16
2022-09-26T01:09:37.385Z,100375.28
2022-09-26T01:12:23.483Z,100393.66
2022-09-26T01:15:09.863Z,100392.91
2022-09-26T01:17:56.103Z,100391.16
2022-09-26T01:20:44.585Z,100388.56
2022-09-26T01:24:05.472Z,100392.94
2022-09-26T01:27:17.806Z,100379.00
2022-09-26T01:30:26.572Z,100362.44
2022-09-26T01:33:24.703Z,100367.66
2022-09-26T01:36:49.833Z,100364.13
2022-09-26T01:40:26.030Z,100360.66
2022-09-26T01:43:33.850Z,100367.78
2022-09-26T01:46:50.595Z,100369.59
2022-09-26T01:49:46.486Z,100354.91
2022-09-26T01:52:48.099Z,100347.19
2022-09-26T01:55:48.691Z,100350.72
2022-09-26T01:58:41.801Z,100359.50
2022-09-26T02:01:31.444Z,100358.66
2022-09-26T02:04:30.994Z,100368.34
2022-09-26T02:07:21.644Z,100370.09
2022-09-26T02:10:16.961Z,100362.34
2022-09-26T02:13:15.264Z,100372.03
2022-09-26T02:16:11.885Z,100365.91
2022-09-26T02:19:06.633Z,100360.72
2022-09-26T02:21:52.946Z,100363.41
2022-09-26T02:24:38.390Z,100361.75
2022-09-26T02:27:25.717Z,100352.97
2022-09-26T02:30:12.341Z,100358.19
2022-09-26T02:32:57.617Z,100353.84
2022-09-26T02:35:55.644Z,100364.28
2022-09-26T02:38:43.239Z,100356.44
2022-09-26T02:42:24.662Z,100352.97
2022-09-26T02:45:26.006Z,100359.06
2022-09-26T02:48:36.894Z,100348.66
2022-09-26T02:51:54.497Z,100333.03
2022-09-26T02:55:07.547Z,100343.53
2022-09-26T02:58:04.181Z,100341.81
2022-09-26T03:00:57.418Z,100358.38
2022-09-26T03:04:00.009Z,100352.31
2022-09-26T03:06:49.395Z,100349.69
2022-09-26T03:09:35.200Z,100356.69
2022-09-26T03:12:23.342Z,100362.81
2022-09-26T03:15:09.846Z,100348.88
2022-09-26T03:17:58.501Z,100346.31
2022-09-26T03:20:44.797Z,100343.75
2022-09-26T03:23:30.518Z,100348.13
2022-09-26T03:26:25.889Z,100355.13
2022-09-26T03:29:15.253Z,100350.81
2022-09-26T03:32:01.285Z,100343.81
2022-09-26T03:34:47.125Z,100345.53
2022-09-26T03:37:35.148Z,100343.81
2022-09-26T03:40:20.431Z,100348.25
2022-09-26T03:43:32.132Z,100350.91
2022-09-26T03:46:18.325Z,100353.53
2022-09-26T03:49:04.403Z,100352.69
2022-09-26T03:51:49.945Z,100340.56
2022-09-26T03:54:35.786Z,100344.94
2022-09-26T03:57:21.063Z,100344.09
2022-09-26T04:00:15.459Z,100344.19
2022-09-26T04:03:05.541Z,100347.72
2022-09-26T04:05:57.729Z,100349.44
2022-09-26T04:08:43.163Z,100342.47
2022-09-26T04:11:30.334Z,100345.97
2022-09-26T04:14:17.586Z,100335.53
2022-09-26T04:17:06.997Z,100345.09
2022-09-26T04:19:56.652Z,100339.97
2022-09-26T04:22:42.676Z,100312.22
2022-09-26T04:25:28.033Z,100309.72
2022-09-26T04:28:14.089Z,100317.69
2022-09-26T04:31:00.810Z,100318.59
2022-09-26T04:33:46.133Z,100324.75
2022-09-26T04:36:32.745Z,100319.53
2022-09-26T04:39:19.349Z,100317.00
2022-09-26T04:42:06.055Z,100303.13
2022-09-26T04:44:51.601Z,100304.00
2022-09-26T04:47:36.872Z,100302.31
2022-09-26T04:50:41.085Z,100301.47
2022-09-26T04:53:29.557Z,100309.31
2022-09-26T04:56:30.169Z,100310.19
2022-09-26T04:59:15.747Z,100298.06
2022-09-26T05:02:12.659Z,100303.31
2022-09-26T05:05:00.332Z,100308.59
2022-09-26T05:07:46.496Z,100317.31
2022-09-26T05:10:32.771Z,100318.19
2022-09-26T05:13:23.063Z,100316.44
2022-09-26T05:16:11.377Z,100322.56
2022-09-26T05:18:58.641Z,100324.34
2022-09-26T05:21:46.437Z,100326.97
2022-09-26T05:24:50.351Z,100332.19
2022-09-26T05:27:36.608Z,100348.72
2022-09-26T05:30:22.053Z,100350.47
2022-09-26T05:33:07.898Z,100359.13
2022-09-26T05:35:54.976Z,100365.22
2022-09-26T05:38:40.812Z,100374.72
2022-09-26T05:41:31.732Z,100374.66
2022-09-26T05:44:17.376Z,100383.34
2022-09-26T05:47:02.935Z,100390.28
2022-09-26T05:49:48.982Z,100395.47
2022-09-26T05:52:38.536Z,100382.41
2022-09-26T05:55:26.210Z,100386.75
2022-09-26T05:58:24.077Z,100394.56
2022-09-26T06:01:28.531Z,100403.25
2022-09-26T06:04:24.118Z,100407.59
2022-09-26T06:07:28.916Z,100399.81
2022-09-26T06:10:15.245Z,100403.25
2022-09-26T06:13:15.382Z,100395.47
2022-09-26T06:16:14.131Z,100411.97
2022-09-26T06:19:01.070Z,100421.56
2022-09-26T06:21:46.997Z,100418.09
2022-09-26T06:24:35.532Z,100433.78
2022-09-26T06:27:28.685Z,100422.50
2022-09-26T06:30:14.797Z,100434.66
2022-09-26T06:33:00.326Z,100433.81
2022-09-26T06:36:23.196Z,100450.28
2022-09-26T06:39:09.689Z,100452.03
2022-09-26T06:41:56.011Z,100450.28
2022-09-26T06:45:01.446Z,100445.94
2022-09-26T06:47:56.266Z,100446.78
2022-09-26T06:51:04.706Z,100441.53
2022-09-26T06:53:50.083Z,100438.09
2022-09-26T06:56:39.327Z,100431.97
2022-09-26T06:59:25.140Z,100437.19
2022-09-26T07:02:37.064Z,100442.41
2022-09-26T07:05:38.027Z,100438.00
2022-09-26T07:08:43.319Z,100439.72
2022-09-26T07:11:45.979Z,100441.44
2022-09-26T07:14:37.991Z,100440.56
2022-09-26T07:17:36.799Z,100450.13
2022-09-26T07:20:32.241Z,100463.16
2022-09-26T07:23:45.793Z,100474.47
2022-09-26T07:26:31.842Z,100464.88
2022-09-26T07:29:18.256Z,100465.78
2022-09-26T07:32:04.771Z,100474.44
2022-09-26T07:35:03.299Z,100477.91
2022-09-26T07:37:53.003Z,100484.03
2022-09-26T07:40:39.581Z,100490.13
2022-09-26T07:43:50.286Z,100494.44
2022-09-26T07:46:54.414Z,100493.56
2022-09-26T07:49:59.595Z,100502.22
2022-09-26T07:53:20.559Z,100509.19
2022-09-26T07:56:35.305Z,100518.75
2022-09-26T07:59:37.950Z,100523.91
2022-09-26T08:02:36.167Z,100525.66
2022-09-26T08:05:25.026Z,100529.97
2022-09-26T08:08:11.577Z,100523.88
2022-09-26T08:11:18.633Z,100524.69
2022-09-26T08:14:17.631Z,100519.41
2022-09-26T08:17:15.310Z,100515.94
2022-09-26T08:20:01.893Z,100512.47
2022-09-26T08:22:47.819Z,100520.31
2022-09-26T08:25:35.791Z,100515.09
2022-09-26T08:28:39.247Z,100511.59
2022-09-26T08:31:26.352Z,100516.78
2022-09-26T08:34:12.057Z,100510.72
2022-09-26T08:36:58.744Z,100527.22
2022-09-26T08:40:11.096Z,100526.31
2022-09-26T08:43:50.242Z,100522.78
2022-09-26T08:47:41.028Z,100536.69
2022-09-26T08:50:35.206Z,100533.22
2022-09-26T08:53:25.045Z,100541.03
2022-09-26T08:56:21.610Z,100549.66
2022-09-26T08:59:14.238Z,100547.00
2022-09-26T09:02:02.677Z,100549.56
2022-09-26T09:05:11.669Z,100549.47
2022-09-26T09:08:08.052Z,100550.28
2022-09-26T09:11:26.458Z,100552.03
2022-09-26T09:14:27.447Z,100562.44
2022-09-26T09:18:14.016Z,100562.41
2022-09-26T09:21:12.641Z,100559.75
2022-09-26T09:24:46.263Z,100559.81
2022-09-26T09:27:55.278Z,100571.91
2022-09-26T09:30:59.657Z,100567.53
2022-09-26T09:34:34.722Z,100571.88
2022-09-26T09:37:55.949Z,100570.88
2022-09-26T09:41:21.050Z,100567.34
2022-09-26T09:44:36.298Z,100549.91
2022-09-26T09:47:21.985Z,100544.59
2022-09-26T09:50:16.771Z,100564.56
2022-09-26T09:53:13.849Z,100562.78
2022-09-26T09:56:23.723Z,100566.28
2022-09-26T09:59:27.838Z,100554.94
2022-09-26T10:02:34.850Z,100563.56
2022-09-26T10:05:33.795Z,100567.84
2022-09-26T10:08:32.257Z,100560.75
2022-09-26T10:11:42.042Z,100567.53
2022-09-26T10:14:55.893Z,100574.53
2022-09-26T10:18:26.735Z,100568.50
2022-09-26T10:21:34.101Z,100553.66
2022-09-26T10:24:26.952Z,100565.81
2022-09-26T10:27:47.219Z,100567.34
2022-09-26T10:30:48.138Z,100575.91
2022-09-26T10:33:38.714Z,100581.91
2022-09-26T10:36:38.917Z,100581.00
2022-09-26T10:39:47.779Z,100586.13
2022-09-26T10:42:33.322Z,100580.88
2022-09-26T10:45:27.333Z,100580.84
2022-09-26T10:48:59.727Z,100576.47
2022-09-26T10:52:34.487Z,100571.94
2022-09-26T10:55:29.775Z,100570.25
2022-09-26T10:58:19.398Z,100576.56
2022-09-26T11:01:07.261Z,100577.34
2022-09-26T11:04:15.070Z,100567.75
2022-09-26T11:07:42.946Z,100578.22
2022-09-26T11:10:41.675Z,100563.38
2022-09-26T11:14:03.948Z,100562.22
2022-09-26T11:16:55.661Z,100549.63
2022-09-26T11:19:54.473Z,100565.09
2022-09-26T11:22:49.018Z,100542.72
2022-09-26T11:25:57.812Z,100546.94
2022-09-26T11:28:49.851Z,100539.88
2022-09-26T11:31:48.576Z,100547.03
2022-09-26T11:35:33.543Z,100538.41
2022-09-26T11:38:39.092Z,100526.84
2022-09-26T11:41:36.782Z,100534.78
2022-09-26T11:44:26.380Z,100535.13
2022-09-26T11:47:56.125Z,100536.66
2022-09-26T11:50:55.940Z,100548.75
2022-09-26T11:54:12.390Z,100538.63
2022-09-26T11:57:18.011Z,100540.31
2022-09-26T12:00:26.521Z,100542.84
2022-09-26T12:03:41.400Z,100532.91
2022-09-26T12:06:50.788Z,100552.66
2022-09-26T12:09:47.461Z,100554.91
2022-09-26T12:12:42.541Z,100555.28
2022-09-26T12:15:43.496Z,100554.75
2022-09-26T12:18:55.683Z,100548.91
2022-09-26T12:22:13.984Z,100544.09
2022-09-26T12:25:20.344Z,100558.66
2022-09-26T12:28:11.914Z,100536.47
2022-09-26T12:31:19.676Z,100533.63
2022-09-26T12:34:39.469Z,100533.28
2022-09-26T12:37:52.927Z,100534.78
2022-09-26T12:41:07.734Z,100535.53
2022-09-26T12:44:11.075Z,100520.47
2022-09-26T12:47:04.954Z,100520.13
2022-09-26T12:49:53.395Z,100520.44
2022-09-26T12:53:05.473Z,100516.16
2022-09-26T12:56:15.487Z,100519.16
2022-09-26T12:59:07.516Z,100523.06
2022-09-26T13:02:14.666Z,100527.97
2022-09-26T13:05:28.201Z,100561.75
2022-09-26T13:08:53.331Z,100552.28
2022-09-26T13:12:04.093Z,100535.38
2022-09-26T13:14:57.392Z,100535.72
2022-09-26T13:17:47.960Z,100537.53
2022-09-26T13:20:43.421Z,100538.00
2022-09-26T13:23:41.164Z,100528.75
2022-09-26T13:26:45.166Z,100521.28
2022-09-26T13:29:37.463Z,100533.47
2022-09-26T13:32:58.825Z,100538.47
2022-09-26T13:35:47.327Z,100526.38
2022-09-26T13:38:45.928Z,100540.53
2022-09-26T13:41:40.827Z,100522.53
2022-09-26T13:44:52.782Z,100504.22
2022-09-26T13:47:56.751Z,100499.59
2022-09-26T13:50:55.510Z,100508.31
2022-09-26T13:54:05.139Z,100512.47
2022-09-26T13:56:51.040Z,100509.75
2022-09-26T13:59:51.583Z,100492.22
2022-09-26T14:02:37.134Z,100506.59
2022-09-26T14:05:22.918Z,100504.53
2022-09-26T14:08:47.447Z,100504.69
2022-09-26T14:11:51.581Z,100508.25
2022-09-26T14:14:52.629Z,100509.44
2022-09-26T14:18:13.088Z,100522.72
2022-09-26T14:21:16.223Z,100513.25
2022-09-26T14:24:20.339Z,100516.19
2022-09-26T14:27:11.623Z,100512.03
2022-09-26T14:30:22.693Z,100529.66
2022-09-26T14:33:12.999Z,100513.94
2022-09-26T14:36:33.632Z,100514.69
2022-09-26T14:39:38.005Z,100511.19
2022-09-26T14:42:27.319Z,100521.88
2022-09-26T14:45:25.589Z,100507.81
2022-09-26T14:48:37.493Z,100513.66
2022-09-26T14:51:29.464Z,100517.97
2022-09-26T14:54:25.416Z,100517.16
2022-09-26T14:57:31.818Z,100516.28
2022-09-26T15:00:54.777Z,100519.06
2022-09-26T15:03:40.500Z,100520.03
2022-09-26T15:06:28.664Z,100522.97
2022-09-26T15:09:23.740Z,100526.56
2022-09-26T15:12:16.892Z,100525.69
2022-09-26T15:15:40.203Z,100514.34
2022-09-26T15:18:35.684Z,100535.63
2022-09-26T15:21:27.644Z,100533.25
2022-09-26T15:24:29.720Z,100535.53
2022-09-26T15:27:27.605Z,100540.84
2022-09-26T15:30:19.185Z,100528.75
2022-09-26T15:33:04.889Z,100519.13
2022-09-26T15:35:54.776Z,100518.94
2022-09-26T15:38:41.927Z,100514.34
2022-09-26T15:41:48.972Z,100523.84
2022-09-26T15:44:35.063Z,100521.09
2022-09-26T15:47:41.715Z,100521.75
2022-09-26T15:50:49.755Z,100523.34
2022-09-26T15:53:40.053Z,100532.38
2022-09-26T15:56:47.492Z,100534.97
2022-09-26T15:59:41.440Z,100532.34
2022-09-26T16:02:32.832Z,100523.66
2022-09-26T16:05:21.075Z,100520.28
2022-09-26T16:08:20.790Z,100516.78
2022-09-26T16:11:09.489Z,100521.25
2022-09-26T16:13:56.721Z,100522.09
2022-09-26T16:16:42.449Z,100515.06
2022-09-26T16:19:32.343Z,100515.19
2022-09-26T16:22:36.223Z,100529.22
2022-09-26T16:25:54.986Z,100530.03
2022-09-26T16:28:42.839Z,100530.97
2022-09-26T16:31:32.829Z,100522.22
2022-09-26T16:34:21.552Z,100521.31
2022-09-26T16:37:17.930Z,100523.94
2022-09-26T16:40:03.912Z,100521.38
2022-09-26T16:42:49.429Z,100523.03
2022-09-26T16:45:34.986Z,100530.16
2022-09-26T16:48:34.893Z,100534.56
2022-09-26T16:52:06.723Z,100531.94
2022-09-26T16:54:53.969Z,100542.53
2022-09-26T16:58:00.700Z,100547.75
2022-09-26T17:01:04.921Z,100544.28
2022-09-26T17:03:50.572Z,100544.31
2022-09-26T17:06:37.213Z,100549.56
2022-09-26T17:09:28.203Z,100553.09
2022-09-26T17:12:21.995Z,100554.03
2022-09-26T17:15:09.471Z,100556.69
2022-09-26T17:17:56.980Z,100561.00
2022-09-26T17:20:45.521Z,100556.69
2022-09-26T17:23:40.399Z,100563.66
2022-09-26T17:26:26.782Z,100558.44
2022-09-26T17:29:20.863Z,100577.63
2022-09-26T17:32:14.812Z,100568.94
2022-09-26T17:35:03.960Z,100577.69
2022-09-26T17:37:49.599Z,100596.00
2022-09-26T17:40:35.117Z,100597.81
2022-09-26T17:43:20.457Z,100589.97
2022-09-26T17:46:11.462Z,100595.25
2022-09-26T17:49:05.233Z,100597.94
2022-09-26T17:51:51.066Z,100599.69
2022-09-26T17:54:40.872Z,100587.50
2022-09-26T17:57:30.170Z,100584.09
2022-09-26T18:00:17.981Z,100592.81
2022-09-26T18:03:04.977Z,100585.03
2022-09-26T18:05:50.952Z,100592.03
2022-09-26T18:08:38.850Z,100579.88
2022-09-26T18:11:24.540Z,100592.97
2022-09-26T18:14:17.194Z,100589.50
2022-09-26T18:17:04.355Z,100591.28
2022-09-26T18:19:50.766Z,100586.06
2022-09-26T18:22:36.393Z,100581.69
2022-09-26T18:25:25.116Z,100586.09
2022-09-26T18:28:15.360Z,100583.50
2022-09-26T18:31:01.307Z,100594.84
2022-09-26T18:33:47.157Z,100585.25
2022-09-26T18:36:33.429Z,100584.38
2022-09-26T18:39:19.053Z,100579.13
2022-09-26T18:42:09.343Z,100588.72
2022-09-26T18:45:06.258Z,100591.31
2022-09-26T18:47:51.734Z,100598.31
2022-09-26T18:50:39.869Z,100600.97
2022-09-26T18:53:29.556Z,100602.75
2022-09-26T18:56:33.447Z,100605.44
2022-09-26T18:59:19.031Z,100609.81
2022-09-26T19:02:19.400Z,100607.22
2022-09-26T19:05:06.107Z,100612.44
2022-09-26T19:07:51.754Z,100610.69
2022-09-26T19:10:38.094Z,100618.50
2022-09-26T19:13:27.471Z,100612.38
2022-09-26T19:16:13.370Z,100611.50
2022-09-26T19:18:59.047Z,100608.88
2022-09-26T19:21:57.072Z,100614.97
2022-09-26T19:24:48.663Z,100615.81
2022-09-26T19:27:50.026Z,100616.69
2022-09-26T19:30:35.600Z,100615.78
2022-09-26T19:33:21.413Z,100621.91
2022-09-26T19:36:06.959Z,100621.03
2022-09-26T19:38:52.540Z,100624.53
2022-09-26T19:41:38.115Z,100624.59
2022-09-26T19:44:24.520Z,100634.19
2022-09-26T19:47:18.602Z,100625.50
2022-09-26T19:50:04.622Z,100632.50
2022-09-26T19:52:56.644Z,100621.22
2022-09-26T19:55:43.155Z,100631.69
2022-09-26T19:58:28.808Z,100638.66
2022-09-26T20:01:19.218Z,100641.28
2022-09-26T20:04:12.957Z,100638.66
2022-09-26T20:06:58.631Z,100641.28
2022-09-26T20:09:44.670Z,100643.91
2022-09-26T20:12:30.218Z,100641.28
2022-09-26T20:15:17.863Z,100642.16
2022-09-26T20:18:03.589Z,100642.13
2022-09-26T20:20:53.985Z,100643.00
2022-09-26T20:23:41.821Z,100649.09
2022-09-26T20:26:41.609Z,100647.34
2022-09-26T20:29:52.114Z,100658.66
2022-09-26T20:32:41.515Z,100661.25
2022-09-26T20:35:35.460Z,100660.41
2022-09-26T20:38:26.612Z,100655.19
2022-09-26T20:41:34.405Z,100656.91
2022-09-26T20:44:27.415Z,100663.00
2022-09-26T20:47:19.675Z,100660.41
2022-09-26T20:50:05.376Z,100661.25
2022-09-26T20:52:50.879Z,100660.41
2022-09-26T20:55:37.897Z,100667.31
2022-09-26T20:58:26.606Z,100653.47
2022-09-26T21:01:18.368Z,100648.25
2022-09-26T21:04:05.435Z,100636.06
2022-09-26T21:06:50.778Z,100636.06
2022-09-26T21:09:36.538Z,100640.41
2022-09-26T21:12:21.868Z,100646.47
2022-09-26T21:15:11.509Z,100655.19
2022-09-26T21:17:58.057Z,100651.69
2022-09-26T21:20:45.449Z,100648.22
2022-09-26T21:23:31.545Z,100649.09
2022-09-26T21:26:22.872Z,100648.25
2022-09-26T21:29:14.754Z,100648.25
2022-09-26T21:32:04.468Z,100638.69
2022-09-26T21:35:02.506Z,100646.50
2022-09-26T21:37:51.795Z,100644.75
2022-09-26T21:40:40.195Z,100644.75
2022-09-26T21:43:29.567Z,100639.53
2022-09-26T21:46:15.521Z,100639.53
2022-09-26T21:49:01.267Z,100633.44
2022-09-26T21:51:51.561Z,100636.06
2022-09-26T21:54:43.065Z,100639.53
2022-09-26T21:57:38.713Z,100639.53
2022-09-26T22:00:24.068Z,100632.59
2022-09-26T22:03:09.475Z,100616.13
2022-09-26T22:05:55.093Z,100623.94
2022-09-26T22:08:41.044Z,100621.31
2022-09-26T22:11:26.843Z,100623.91
2022-09-26T22:14:12.681Z,100616.94
2022-09-26T22:17:00.956Z,100627.41
2022-09-26T22:19:47.023Z,100616.09
2022-09-26T22:22:32.435Z,100620.44
2022-09-26T22:25:18.187Z,100625.66
2022-09-26T22:28:03.616Z,100618.69
2022-09-26T22:30:48.979Z,100632.63
2022-09-26T22:33:34.868Z,100642.16
2022-09-26T22:36:20.307Z,100647.34
2022-09-26T22:39:06.269Z,100637.81
2022-09-26T22:41:52.354Z,100620.44
2022-09-26T22:44:38.035Z,100614.38
2022-09-26T22:47:23.669Z,100614.38
2022-09-26T22:50:09.377Z,100612.63
2022-09-26T22:52:54.958Z,100607.41
2022-09-26T22:55:40.405Z,100599.59
2022-09-26T22:58:26.435Z,100593.50
2022-09-26T23:01:15.333Z,100581.38
2022-09-26T23:04:01.083Z,100577.03
2022-09-26T23:06:46.819Z,100577.03
2022-09-26T23:09:32.616Z,100581.38
2022-09-26T23:12:19.311Z,100582.22
2022-09-26T23:15:05.174Z,100579.63
2022-09-26T23:17:50.812Z,100570.97
2022-09-26T23:20:39.337Z,100577.91
2022-09-26T23:23:24.937Z,100576.16
2022-09-26T23:26:23.297Z,100571.81
2022-09-26T23:29:09.285Z,100567.47
2022-09-26T23:31:54.989Z,100558.81
2022-09-26T23:34:40.426Z,100556.19
2022-09-26T23:37:25.811Z,100547.50
2022-09-26T23:40:11.241Z,100549.25
2022-09-26T23:42:56.607Z,100542.28
2022-09-26T23:45:42.034Z,100540.56
2022-09-26T23:48:27.729Z,100533.66
2022-09-26T23:51:13.354Z,100517.16
2022-09-26T23:53:58.977Z,100522.34
2022-09-26T23:56:44.161Z,100520.59
2022-09-26T23:59:29.547Z,100508.47
